Time;durP1;ratioP1;P1;durP2;ratioP2;P2;SDS_P1;SDS_P2;PMS_P1;PMS_P2;Temp;Humidity;BMP_temperature;BMP_pressure;BME280_temperature;BME280_humidity;BME280_pressure;Samples;Min_cycle;Max_cycle;Signal;HPM_P1;HPM_P2
2021/03/18 00:01:11;;;;;;;11.93;5.45;;;;;;;;;;8258908;28;20410;-70
2021/03/18 00:05:16;;;;;;;11.38;4.93;;;;;;;;;;8225178;28;20367;-71
2021/03/18 00:09:21;;;;;;;12.18;5.10;;;;;;;;;;8240984;28;20463;-70
2021/03/18 00:13:30;;;;;;;8.55;4.28;;;;;;;;;;8257429;28;20367;-70
2021/03/18 00:17:37;;;;;;;7.82;4.05;;;;;;;;;;8256829;28;20355;-70
2021/03/18 00:21:43;;;;;;;9.27;4.25;;;;;;;;;;8256496;28;20406;-70
2021/03/18 00:25:48;;;;;;;12.45;4.72;;;;;;;;;;8257376;28;20417;-70
2021/03/18 00:29:54;;;;;;;8.50;4.43;;;;;;;;;;8272176;28;20383;-71
2021/03/18 00:34:03;;;;;;;10.98;4.80;;;;;;;;;;8257808;28;20455;-71
2021/03/18 00:38:12;;;;;;;10.90;4.53;;;;;;;;;;8260478;28;20444;-72
2021/03/18 00:42:17;;;;;;;12.93;5.40;;;;;;;;;;8259208;28;20476;-70
2021/03/18 00:46:21;;;;;;;11.00;5.07;;;;;;;;;;8255161;28;20061;-70
2021/03/18 00:50:34;;;;;;;10.88;5.43;;;;;;;;;;8258101;28;20482;-71
2021/03/18 00:54:41;;;;;;;14.13;6.03;;;;;;;;;;8256574;28;20379;-70
2021/03/18 00:58:48;;;;;;;13.80;5.95;;;;;;;;;;8255571;28;20390;-71
2021/03/18 01:02:57;;;;;;;14.25;5.85;;;;;;;;;;8243244;28;20078;-70
2021/03/18 01:07:04;;;;;;;17.27;6.80;;;;;;;;;;8255477;28;20387;-71
2021/03/18 01:11:16;;;;;;;14.57;6.68;;;;;;;;;;8256594;28;20478;-72
2021/03/18 01:15:26;;;;;;;13.90;6.10;;;;;;;;;;8256338;28;20479;-70
2021/03/18 01:19:31;;;;;;;13.43;6.35;;;;;;;;;;8256636;28;20454;-70
2021/03/18 01:23:36;;;;;;;15.18;7.13;;;;;;;;;;8259912;28;20488;-70
2021/03/18 01:27:41;;;;;;;17.00;7.70;;;;;;;;;;8265068;28;20426;-70
2021/03/18 01:31:46;;;;;;;13.63;6.90;;;;;;;;;;8264384;28;20367;-70
2021/03/18 01:35:51;;;;;;;15.13;7.40;;;;;;;;;;8264040;28;20431;-70
2021/03/18 01:39:56;;;;;;;14.60;6.93;;;;;;;;;;8265058;28;20134;-70
2021/03/18 01:44:04;;;;;;;19.67;8.38;;;;;;;;;;8261718;28;20498;-70
2021/03/18 01:48:09;;;;;;;15.88;7.78;;;;;;;;;;8262768;28;20379;-70
2021/03/18 01:52:15;;;;;;;18.30;7.55;;;;;;;;;;8262135;28;20375;-71
2021/03/18 01:56:20;;;;;;;16.02;8.18;;;;;;;;;;8263618;28;20485;-70
2021/03/18 02:00:26;;;;;;;16.33;7.38;;;;;;;;;;8261551;28;20071;-72
2021/03/18 02:04:34;;;;;;;16.77;8.23;;;;;;;;;;8263069;28;20373;-70
2021/03/18 02:08:39;;;;;;;18.58;8.52;;;;;;;;;;8262054;28;20067;-70
2021/03/18 02:12:43;;;;;;;18.90;7.72;;;;;;;;;;8264069;28;20056;-70
2021/03/18 02:16:52;;;;;;;17.48;8.25;;;;;;;;;;8262379;28;20456;-70
2021/03/18 02:21:37;;;;;;;15.35;7.50;;;;;;;;;;8260296;28;20493;-71
2021/03/18 02:26:46;;;;;;;14.95;7.45;;;;;;;;;;8261894;28;20072;-69
2021/03/18 02:31:05;;;;;;;14.73;7.60;;;;;;;;;;8262294;28;20394;-71
2021/03/18 02:35:29;;;;;;;14.25;7.82;;;;;;;;;;8260098;28;20562;-70
2021/03/18 02:39:40;;;;;;;14.10;7.55;;;;;;;;;;8261985;28;20083;-70
2021/03/18 02:44:13;;;;;;;12.82;7.63;;;;;;;;;;8261464;28;20360;-70
2021/03/18 02:48:39;;;;;;;14.13;6.28;;;;;;;;;;8261583;28;20348;-69
2021/03/18 02:52:46;;;;;;;17.02;8.07;;;;;;;;;;8243893;28;20368;-70
2021/03/18 02:56:55;;;;;;;15.60;8.55;;;;;;;;;;8259287;28;20448;-70
2021/03/18 03:01:03;;;;;;;17.55;9.30;;;;;;;;;;8260353;28;20075;-70
2021/03/18 03:05:21;;;;;;;13.87;8.40;;;;;;;;;;8260633;28;20494;-70
2021/03/18 03:09:25;;;;;;;15.32;7.70;;;;;;;;;;8261491;28;20443;-71
2021/03/18 03:13:34;;;;;;;14.65;8.82;;;;;;;;;;8259715;28;20387;-70
2021/03/18 03:17:40;;;;;;;17.35;7.80;;;;;;;;;;8260965;28;20573;-70
2021/03/18 03:21:46;;;;;;;11.82;7.10;;;;;;;;;;8260133;28;20063;-70
2021/03/18 03:25:51;;;;;;;11.57;6.80;;;;;;;;;;8259163;28;20044;-70
2021/03/18 03:29:56;;;;;;;12.52;5.95;;;;;;;;;;8259584;28;20487;-70
2021/03/18 03:34:04;;;;;;;9.88;5.68;;;;;;;;;;8259489;28;20377;-70
2021/03/18 03:38:08;;;;;;;7.25;4.78;;;;;;;;;;8261313;28;20360;-70
2021/03/18 03:42:13;;;;;;;11.52;5.70;;;;;;;;;;8259768;28;20364;-71
2021/03/18 03:46:18;;;;;;;10.43;5.15;;;;;;;;;;8259669;28;20403;-71
2021/03/18 03:50:27;;;;;;;8.77;5.45;;;;;;;;;;8260790;28;20468;-72
2021/03/18 03:54:33;;;;;;;10.52;5.95;;;;;;;;;;8257502;28;20452;-70
2021/03/18 03:59:04;;;;;;;9.90;6.13;;;;;;;;;;8258072;28;20061;-70
2021/03/18 04:03:11;;;;;;;10.13;6.05;;;;;;;;;;8259979;28;20379;-70
2021/03/18 04:07:22;;;;;;;12.90;5.47;;;;;;;;;;8259443;28;20462;-72
2021/03/18 04:11:27;;;;;;;11.50;5.90;;;;;;;;;;8260118;28;20048;-70
2021/03/18 04:15:35;;;;;;;10.18;5.25;;;;;;;;;;8242365;28;20359;-70
2021/03/18 04:19:44;;;;;;;10.17;5.43;;;;;;;;;;8258843;28;20525;-70
2021/03/18 04:23:49;;;;;;;16.13;5.63;;;;;;;;;;8256109;28;20468;-70
2021/03/18 04:27:55;;;;;;;9.48;5.05;;;;;;;;;;8256908;28;20410;-70
2021/03/18 04:32:01;;;;;;;11.75;4.68;;;;;;;;;;8257878;28;20501;-70
2021/03/18 04:36:23;;;;;;;14.20;5.50;;;;;;;;;;8258250;28;20045;-72
2021/03/18 04:40:28;;;;;;;11.05;5.00;;;;;;;;;;8260734;28;20481;-70
2021/03/18 04:44:34;;;;;;;10.07;5.38;;;;;;;;;;8258093;28;20462;-70
2021/03/18 04:48:40;;;;;;;9.48;3.70;;;;;;;;;;8257100;28;20482;-70
2021/03/18 04:52:44;;;;;;;7.90;4.55;;;;;;;;;;8256340;28;20383;-71
2021/03/18 04:56:50;;;;;;;8.57;4.10;;;;;;;;;;8256434;28;20379;-70
2021/03/18 05:00:56;;;;;;;8.52;4.65;;;;;;;;;;8240084;28;20368;-70
2021/03/18 05:05:01;;;;;;;13.10;4.18;;;;;;;;;;8256515;28;20456;-71
2021/03/18 05:09:07;;;;;;;10.10;4.22;;;;;;;;;;8255615;28;20361;-70
2021/03/18 05:13:12;;;;;;;8.73;4.05;;;;;;;;;;8255990;28;20498;-70
2021/03/18 05:17:18;;;;;;;7.78;4.30;;;;;;;;;;8256461;28;20045;-70
2021/03/18 05:21:23;;;;;;;6.85;3.80;;;;;;;;;;8256983;28;20463;-70
2021/03/18 05:25:31;;;;;;;12.70;4.65;;;;;;;;;;8256383;28;20049;-70
2021/03/18 05:29:36;;;;;;;8.50;3.90;;;;;;;;;;8257318;28;20443;-69
2021/03/18 05:33:40;;;;;;;7.72;3.70;;;;;;;;;;8258075;28;20367;-70
2021/03/18 05:37:44;;;;;;;9.65;3.70;;;;;;;;;;8260271;28;20053;-71
2021/03/18 05:41:49;;;;;;;6.15;3.25;;;;;;;;;;8256835;28;20395;-70
2021/03/18 05:45:54;;;;;;;7.30;3.45;;;;;;;;;;8255736;28;20383;-70
2021/03/18 05:49:59;;;;;;;6.68;3.30;;;;;;;;;;8256375;28;20071;-70
2021/03/18 05:54:05;;;;;;;5.80;2.85;;;;;;;;;;8258590;28;20452;-71
2021/03/18 05:58:12;;;;;;;8.30;3.55;;;;;;;;;;8255281;28;20387;-69
2021/03/18 06:02:17;;;;;;;8.88;3.35;;;;;;;;;;8260064;28;20440;-69
2021/03/18 06:06:22;;;;;;;9.73;3.80;;;;;;;;;;8256651;28;20463;-69
2021/03/18 06:10:27;;;;;;;10.70;4.07;;;;;;;;;;8246189;28;20345;-70
2021/03/18 06:14:31;;;;;;;8.05;4.70;;;;;;;;;;8264109;28;20455;-70
2021/03/18 06:18:37;;;;;;;13.02;6.25;;;;;;;;;;8264895;28;20432;-70
2021/03/18 06:22:46;;;;;;;14.10;7.50;;;;;;;;;;8262595;28;20472;-70
2021/03/18 06:26:50;;;;;;;;;;;;;;;;;;8262902;28;20379;-71
2021/03/18 06:31:10;;;;;;;10.38;4.80;;;;;;;;;;8263014;28;20300;-70
2021/03/18 06:35:15;;;;;;;9.95;5.60;;;;;;;;;;8263999;28;20359;-71
2021/03/18 06:39:19;;;;;;;9.15;5.25;;;;;;;;;;8262454;28;20463;-71
2021/03/18 06:43:42;;;;;;;8.48;5.20;;;;;;;;;;8259333;28;20079;-71
2021/03/18 06:47:58;;;;;;;9.13;5.07;;;;;;;;;;8264216;28;20398;-71
2021/03/18 06:52:13;;;;;;;6.82;4.63;;;;;;;;;;8260359;28;20057;-72
2021/03/18 06:56:35;;;;;;;5.95;3.95;;;;;;;;;;8260327;28;20372;-70
2021/03/18 07:00:41;;;;;;;9.65;4.68;;;;;;;;;;8263891;28;20049;-71
2021/03/18 07:04:49;;;;;;;7.38;3.80;;;;;;;;;;8259782;28;20395;-70
2021/03/18 07:09:13;;;;;;;5.03;3.60;;;;;;;;;;8275457;28;20488;-71
2021/03/18 07:13:24;;;;;;;9.43;2.95;;;;;;;;;;8260129;28;20475;-72
2021/03/18 07:17:36;;;;;;;6.05;3.15;;;;;;;;;;8260786;28;20483;-71
2021/03/18 07:21:42;;;;;;;7.30;3.78;;;;;;;;;;8258249;28;20053;-71
2021/03/18 07:25:48;;;;;;;9.23;3.90;;;;;;;;;;8275723;28;20479;-71
2021/03/18 07:29:52;;;;;;;3.83;2.22;;;;;;;;;;8260261;28;20383;-70
2021/03/18 07:33:57;;;;;;;4.50;2.70;;;;;;;;;;8263084;28;20102;-71
2021/03/18 07:38:04;;;;;;;4.68;2.55;;;;;;;;;;8257914;28;20392;-71
2021/03/18 07:42:09;;;;;;;4.45;2.65;;;;;;;;;;8259107;28;20065;-71
2021/03/18 07:46:18;;;;;;;4.80;2.35;;;;;;;;;;8259476;28;20356;-71
2021/03/18 07:50:30;;;;;;;5.18;3.17;;;;;;;;;;8260733;28;20049;-71
2021/03/18 07:54:36;;;;;;;6.13;3.35;;;;;;;;;;8258091;28;20456;-71
2021/03/18 07:58:49;;;;;;;6.53;3.40;;;;;;;;;;8259236;28;20053;-71
2021/03/18 08:03:09;;;;;;;4.15;2.67;;;;;;;;;;8257951;28;20490;-72
2021/03/18 08:07:45;;;;;;;4.43;2.40;;;;;;;;;;8258257;28;20489;-72
2021/03/18 08:11:53;;;;;;;5.45;2.63;;;;;;;;;;8258903;28;20359;-71
2021/03/18 08:15:58;;;;;;;5.15;2.25;;;;;;;;;;8257217;28;20513;-73
2021/03/18 08:20:01;;;;;;;4.57;1.98;;;;;;;;;;8261689;28;20486;-71
2021/03/18 08:24:33;;;;;;;4.88;2.08;;;;;;;;;;8256952;28;20414;-71
2021/03/18 08:29:00;;;;;;;3.78;1.65;;;;;;;;;;8259677;28;20479;-72
2021/03/18 08:33:45;;;;;;;4.35;1.58;;;;;;;;;;8257005;28;20473;-71
2021/03/18 08:37:49;;;;;;;3.80;1.83;;;;;;;;;;8246964;28;20406;-71
2021/03/18 08:41:54;;;;;;;9.55;6.32;;;;;;;;;;8257547;28;20476;-72
2021/03/18 08:45:58;;;;;;;9.15;5.15;;;;;;;;;;8257573;28;20375;-71
2021/03/18 08:50:06;;;;;;;4.32;1.80;;;;;;;;;;8258629;28;20375;-72
2021/03/18 08:54:40;;;;;;;13.15;9.57;;;;;;;;;;8258372;28;20456;-71
2021/03/18 08:58:46;;;;;;;4.60;2.35;;;;;;;;;;8259752;28;20466;-72
2021/03/18 09:02:51;;;;;;;31.15;16.52;;;;;;;;;;8257521;28;20057;-72
2021/03/18 09:06:55;;;;;;;8.45;4.05;;;;;;;;;;8256014;28;20447;-71
2021/03/18 09:11:00;;;;;;;9.32;4.18;;;;;;;;;;8257765;28;20386;-71
2021/03/18 09:15:36;;;;;;;20.33;10.90;;;;;;;;;;8258782;28;20353;-71
2021/03/18 09:19:46;;;;;;;4.43;2.33;;;;;;;;;;8258088;28;20486;-72
2021/03/18 09:23:52;;;;;;;4.28;2.60;;;;;;;;;;8256742;28;20650;-72
2021/03/18 09:27:58;;;;;;;8.80;3.58;;;;;;;;;;8255720;28;20374;-71
2021/03/18 09:32:11;;;;;;;7.10;2.00;;;;;;;;;;8255030;28;20474;-72
2021/03/18 09:36:14;;;;;;;4.20;2.15;;;;;;;;;;8257885;28;20471;-71
2021/03/18 09:40:36;;;;;;;3.55;1.98;;;;;;;;;;8259914;28;20454;-71
2021/03/18 09:44:40;;;;;;;4.97;2.67;;;;;;;;;;8243929;28;20463;-72
2021/03/18 09:48:44;;;;;;;2.67;1.60;;;;;;;;;;8261097;28;20472;-72
2021/03/18 09:52:48;;;;;;;2.47;1.60;;;;;;;;;;8261841;28;20060;-71
2021/03/18 09:56:53;;;;;;;7.60;4.00;;;;;;;;;;8262735;28;20479;-70
2021/03/18 10:00:58;;;;;;;2.67;1.60;;;;;;;;;;8263190;28;20382;-70
2021/03/18 10:05:05;;;;;;;4.90;2.65;;;;;;;;;;8263616;28;20418;-71
2021/03/18 10:09:25;;;;;;;4.13;2.35;;;;;;;;;;8262998;28;20057;-71
2021/03/18 10:13:30;;;;;;;8.15;3.60;;;;;;;;;;8262812;28;20071;-71
2021/03/18 10:17:39;;;;;;;11.02;5.82;;;;;;;;;;8260602;28;20333;-71
2021/03/18 10:21:46;;;;;;;6.53;3.60;;;;;;;;;;8260309;28;20459;-72
2021/03/18 10:25:51;;;;;;;5.93;2.80;;;;;;;;;;8261059;28;20416;-70
2021/03/18 10:30:11;;;;;;;5.38;3.10;;;;;;;;;;8262386;28;20459;-71
2021/03/18 10:34:26;;;;;;;3.50;1.75;;;;;;;;;;8262087;28;20475;-70
2021/03/18 10:38:36;;;;;;;40.78;9.57;;;;;;;;;;8244762;28;20048;-71
2021/03/18 10:42:41;;;;;;;7.32;3.10;;;;;;;;;;8259928;28;20375;-71
2021/03/18 10:46:46;;;;;;;3.85;2.38;;;;;;;;;;8277181;28;20479;-72
2021/03/18 10:50:52;;;;;;;2.85;1.98;;;;;;;;;;8261322;28;20455;-71
2021/03/18 10:54:58;;;;;;;28.73;6.50;;;;;;;;;;8260375;28;20364;-73
2021/03/18 10:59:22;;;;;;;7.32;2.67;;;;;;;;;;8259670;28;20399;-71
2021/03/18 11:03:33;;;;;;;25.48;7.40;;;;;;;;;;8262720;28;20367;-71
2021/03/18 11:07:38;;;;;;;3.22;1.85;;;;;;;;;;8259382;28;20053;-71
2021/03/18 11:11:59;;;;;;;5.43;2.00;;;;;;;;;;8262376;28;20495;-72
2021/03/18 11:16:05;;;;;;;4.25;2.53;;;;;;;;;;8261018;28;20455;-71
2021/03/18 11:20:15;;;;;;;7.70;2.60;;;;;;;;;;8259198;28;20372;-71
2021/03/18 11:24:20;;;;;;;6.18;3.20;;;;;;;;;;8259293;28;20379;-72
2021/03/18 11:28:26;;;;;;;7.22;3.05;;;;;;;;;;8259745;28;20092;-71
2021/03/18 11:32:31;;;;;;;4.93;2.17;;;;;;;;;;8259391;28;20443;-71
2021/03/18 11:36:34;;;;;;;3.40;2.10;;;;;;;;;;8258615;28;20063;-71
2021/03/18 11:40:41;;;;;;;6.50;3.17;;;;;;;;;;8260239;28;20685;-71
2021/03/18 11:44:45;;;;;;;21.77;9.35;;;;;;;;;;8259093;28;20049;-71
2021/03/18 11:48:49;;;;;;;11.82;5.80;;;;;;;;;;8259931;28;20470;-71
2021/03/18 11:52:54;;;;;;;5.80;2.95;;;;;;;;;;8258207;28;20463;-71
2021/03/18 11:56:58;;;;;;;6.25;3.08;;;;;;;;;;8274896;28;20502;-72
2021/03/18 12:01:04;;;;;;;13.90;6.10;;;;;;;;;;8257450;28;20045;-71
2021/03/18 12:05:09;;;;;;;8.82;4.05;;;;;;;;;;8257239;28;20448;-71
2021/03/18 12:09:14;;;;;;;5.80;3.30;;;;;;;;;;8260030;28;20049;-71
2021/03/18 12:13:20;;;;;;;5.43;3.13;;;;;;;;;;8259662;28;20480;-71
2021/03/18 12:17:25;;;;;;;5.00;3.05;;;;;;;;;;8256854;28;20479;-71
2021/03/18 12:21:29;;;;;;;5.47;3.03;;;;;;;;;;8258848;28;20061;-71
2021/03/18 12:25:34;;;;;;;7.03;3.00;;;;;;;;;;8258193;28;20463;-71
2021/03/18 12:29:38;;;;;;;4.47;3.03;;;;;;;;;;8258715;28;20068;-71
2021/03/18 12:33:42;;;;;;;5.65;2.60;;;;;;;;;;8258083;28;20364;-70
2021/03/18 12:37:50;;;;;;;4.55;2.55;;;;;;;;;;8260948;28;20403;-71
2021/03/18 12:41:54;;;;;;;4.47;2.58;;;;;;;;;;8258147;28;20311;-71
2021/03/18 12:45:59;;;;;;;5.47;3.85;;;;;;;;;;8259804;28;20347;-71
2021/03/18 12:50:08;;;;;;;5.72;3.20;;;;;;;;;;8258886;28;20052;-71
2021/03/18 12:54:12;;;;;;;8.75;3.88;;;;;;;;;;8258139;28;20379;-71
2021/03/18 12:58:17;;;;;;;6.72;4.55;;;;;;;;;;8256149;28;20471;-71
2021/03/18 13:02:21;;;;;;;13.82;4.40;;;;;;;;;;8259667;28;20459;-71
2021/03/18 13:06:26;;;;;;;6.07;2.85;;;;;;;;;;8257748;28;20464;-71
2021/03/18 13:10:31;;;;;;;5.38;3.10;;;;;;;;;;8258605;28;20467;-71
2021/03/18 13:14:35;;;;;;;6.22;2.97;;;;;;;;;;8257122;28;20476;-72
2021/03/18 13:18:39;;;;;;;3.67;2.47;;;;;;;;;;8257299;28;20343;-71
2021/03/18 13:22:44;;;;;;;4.93;3.35;;;;;;;;;;8257576;28;20432;-70
2021/03/18 13:26:48;;;;;;;4.93;3.00;;;;;;;;;;8256290;28;20447;-72
2021/03/18 13:30:52;;;;;;;6.72;3.20;;;;;;;;;;8257015;28;20391;-71
2021/03/18 13:34:57;;;;;;;16.65;5.70;;;;;;;;;;8255145;28;20495;-72
2021/03/18 13:39:03;;;;;;;5.88;3.03;;;;;;;;;;8257395;28;20491;-71
2021/03/18 13:43:09;;;;;;;8.70;3.40;;;;;;;;;;8256177;28;20391;-71
2021/03/18 13:47:14;;;;;;;11.15;4.93;;;;;;;;;;8257428;28;20071;-70
2021/03/18 13:51:19;;;;;;;170.80;75.30;;;;;;;;;;8257347;28;20466;-71
2021/03/18 13:55:26;;;;;;;16.40;5.93;;;;;;;;;;8255276;28;20399;-71
2021/03/18 13:59:30;;;;;;;6.07;3.22;;;;;;;;;;8255613;28;20475;-73
2021/03/18 14:03:49;;;;;;;5.47;2.58;;;;;;;;;;8256709;28;20372;-71
2021/03/18 14:07:54;;;;;;;5.93;2.60;;;;;;;;;;8258322;28;20363;-71
2021/03/18 14:11:58;;;;;;;11.95;7.07;;;;;;;;;;8257054;28;20390;-71
2021/03/18 14:16:04;;;;;;;11.88;6.68;;;;;;;;;;8256855;28;20408;-71
2021/03/18 14:20:26;;;;;;;10.77;4.30;;;;;;;;;;8254426;28;20502;-71
2021/03/18 14:24:32;;;;;;;14.88;8.75;;;;;;;;;;8271165;28;20076;-70
2021/03/18 14:28:37;;;;;;;7.43;4.90;;;;;;;;;;8273537;28;20444;-70
2021/03/18 14:32:43;;;;;;;7.35;4.60;;;;;;;;;;8263170;28;20424;-71
2021/03/18 14:36:49;;;;;;;6.95;3.40;;;;;;;;;;8262852;28;20428;-70
2021/03/18 14:40:53;;;;;;;11.10;4.20;;;;;;;;;;8261997;28;20403;-72
2021/03/18 14:44:56;;;;;;;5.00;3.47;;;;;;;;;;8264145;28;20078;-71
2021/03/18 14:49:13;;;;;;;9.50;3.60;;;;;;;;;;8265200;28;20444;-69
2021/03/18 14:53:23;;;;;;;12.05;6.40;;;;;;;;;;8262764;28;20340;-70
2021/03/18 14:57:28;;;;;;;6.82;3.80;;;;;;;;;;8261116;28;20448;-70
2021/03/18 15:01:41;;;;;;;12.02;5.90;;;;;;;;;;8260071;28;20099;-71
2021/03/18 15:05:48;;;;;;;10.93;6.38;;;;;;;;;;8261064;28;20543;-71
2021/03/18 15:09:53;;;;;;;18.73;9.60;;;;;;;;;;8260632;28;20048;-70
2021/03/18 15:13:57;;;;;;;9.18;4.75;;;;;;;;;;8262764;28;20353;-70
2021/03/18 15:18:01;;;;;;;18.48;8.48;;;;;;;;;;8261693;28;20067;-70
2021/03/18 15:22:06;;;;;;;30.30;9.15;;;;;;;;;;8262142;28;20345;-70
2021/03/18 15:26:11;;;;;;;22.63;7.85;;;;;;;;;;8263489;28;20341;-70
2021/03/18 15:30:20;;;;;;;16.90;6.25;;;;;;;;;;8260651;28;20375;-70
2021/03/18 15:34:25;;;;;;;52.08;19.77;;;;;;;;;;8260457;28;20471;-72
2021/03/18 15:38:30;;;;;;;26.52;14.57;;;;;;;;;;8259024;28;20484;-70
2021/03/18 15:42:36;;;;;;;81.13;22.67;;;;;;;;;;8260379;28;20390;-70
2021/03/18 15:46:41;;;;;;;41.65;15.13;;;;;;;;;;8259595;28;20483;-70
2021/03/18 15:50:49;;;;;;;10.63;5.30;;;;;;;;;;8241484;28;20456;-71
2021/03/18 15:54:54;;;;;;;11.25;4.75;;;;;;;;;;8258488;28;20049;-70
2021/03/18 15:58:59;;;;;;;27.30;6.97;;;;;;;;;;8259849;28;20079;-69
2021/03/18 16:03:04;;;;;;;22.80;7.13;;;;;;;;;;8260076;28;20475;-69
2021/03/18 16:07:09;;;;;;;33.63;11.27;;;;;;;;;;8276653;28;20498;-70
2021/03/18 16:11:15;;;;;;;71.10;20.77;;;;;;;;;;8261905;28;20049;-71
2021/03/18 16:15:21;;;;;;;21.25;8.68;;;;;;;;;;8259507;28;20460;-70
2021/03/18 16:19:25;;;;;;;10.43;5.13;;;;;;;;;;8259265;28;20049;-70
2021/03/18 16:23:30;;;;;;;10.27;5.47;;;;;;;;;;8259730;28;21425;-70
2021/03/18 16:27:35;;;;;;;17.85;6.60;;;;;;;;;;8258311;28;20053;-72
2021/03/18 16:31:40;;;;;;;62.20;17.42;;;;;;;;;;8257835;28;20371;-70
2021/03/18 16:35:48;;;;;;;25.48;9.80;;;;;;;;;;8256233;28;20072;-70
2021/03/18 16:39:53;;;;;;;63.53;22.92;;;;;;;;;;8260146;28;20455;-70
2021/03/18 16:43:58;;;;;;;37.05;18.08;;;;;;;;;;8259675;28;20075;-70
2021/03/18 16:48:03;;;;;;;22.15;10.50;;;;;;;;;;8259048;28;20479;-70
2021/03/18 16:52:08;;;;;;;19.20;8.40;;;;;;;;;;8258416;28;20075;-70
2021/03/18 16:56:13;;;;;;;49.25;18.73;;;;;;;;;;8257570;28;20414;-70
2021/03/18 17:00:25;;;;;;;42.97;15.40;;;;;;;;;;8256370;28;20475;-70
2021/03/18 17:04:31;;;;;;;276.73;75.47;;;;;;;;;;8256390;28;20476;-69
2021/03/18 17:09:05;;;;;;;384.33;104.60;;;;;;;;;;8260250;28;20370;-70
2021/03/18 17:13:09;;;;;;;85.70;26.13;;;;;;;;;;8257171;28;20071;-70
2021/03/18 17:17:14;;;;;;;45.15;14.95;;;;;;;;;;8257790;28;20053;-71
2021/03/18 17:21:30;;;;;;;244.07;61.45;;;;;;;;;;8257749;28;20490;-69
2021/03/18 17:25:38;;;;;;;367.92;93.07;;;;;;;;;;8256788;28;20355;-70
2021/03/18 17:29:42;;;;;;;337.35;80.65;;;;;;;;;;8257100;28;20475;-70
2021/03/18 17:33:47;;;;;;;230.68;61.25;;;;;;;;;;8255711;28;20475;-71
2021/03/18 17:37:51;;;;;;;110.75;31.58;;;;;;;;;;8258207;28;20049;-69
2021/03/18 17:41:56;;;;;;;104.97;25.33;;;;;;;;;;8256239;28;20400;-68
2021/03/18 17:46:03;;;;;;;63.28;18.27;;;;;;;;;;8256796;28;20489;-69
2021/03/18 17:50:13;;;;;;;81.53;19.85;;;;;;;;;;8255708;28;20060;-68
2021/03/18 17:54:18;;;;;;;59.15;16.65;;;;;;;;;;8256693;28;20460;-68
2021/03/18 17:58:27;;;;;;;47.60;15.38;;;;;;;;;;8255731;28;20474;-68
2021/03/18 18:02:31;;;;;;;57.47;18.00;;;;;;;;;;8258772;28;20458;-68
2021/03/18 18:06:36;;;;;;;69.43;18.63;;;;;;;;;;8264022;28;20360;-69
2021/03/18 18:10:41;;;;;;;58.58;18.30;;;;;;;;;;8262220;28;20049;-67
2021/03/18 18:14:46;;;;;;;63.92;19.33;;;;;;;;;;8263242;28;20479;-67
2021/03/18 18:18:52;;;;;;;56.80;18.08;;;;;;;;;;8262804;28;20349;-67
2021/03/18 18:22:55;;;;;;;55.75;18.85;;;;;;;;;;8263875;28;20355;-67
2021/03/18 18:26:59;;;;;;;58.25;19.58;;;;;;;;;;8262565;28;20484;-67
2021/03/18 18:31:03;;;;;;;41.70;13.70;;;;;;;;;;8262360;28;20352;-67
2021/03/18 18:35:14;;;;;;;32.88;12.93;;;;;;;;;;8262572;28;20448;-67
2021/03/18 18:39:33;;;;;;;28.95;12.70;;;;;;;;;;8263176;28;20442;-68
2021/03/18 18:43:37;;;;;;;21.80;8.82;;;;;;;;;;8261936;28;20118;-68
2021/03/18 18:47:56;;;;;;;16.67;8.52;;;;;;;;;;8262305;28;20385;-69
2021/03/18 18:52:01;;;;;;;28.27;9.15;;;;;;;;;;8262998;28;20474;-68
2021/03/18 18:56:06;;;;;;;29.55;9.75;;;;;;;;;;8259408;28;20049;-68
2021/03/18 19:00:23;;;;;;;33.67;13.98;;;;;;;;;;8261399;28;20071;-67
2021/03/18 19:04:28;;;;;;;33.95;12.63;;;;;;;;;;8261644;28;20441;-66
2021/03/18 19:08:33;;;;;;;41.78;15.13;;;;;;;;;;8260453;28;20075;-67
2021/03/18 19:12:39;;;;;;;37.28;13.52;;;;;;;;;;8262192;28;20041;-66
2021/03/18 19:16:44;;;;;;;26.33;9.95;;;;;;;;;;8259609;28;20376;-67
2021/03/18 19:20:51;;;;;;;30.05;11.55;;;;;;;;;;8261273;28;20049;-67
2021/03/18 19:24:55;;;;;;;22.77;9.60;;;;;;;;;;8261441;28;20436;-67
2021/03/18 19:29:00;;;;;;;29.58;10.52;;;;;;;;;;8259956;28;20517;-68
2021/03/18 19:33:07;;;;;;;33.63;11.88;;;;;;;;;;8258988;28;20536;-66
2021/03/18 19:37:11;;;;;;;48.42;16.40;;;;;;;;;;8260319;28;20479;-67
2021/03/18 19:41:17;;;;;;;48.05;17.55;;;;;;;;;;8259750;28;20476;-67
2021/03/18 19:45:21;;;;;;;81.63;26.15;;;;;;;;;;8261497;28;20486;-67
2021/03/18 19:49:29;;;;;;;91.65;31.23;;;;;;;;;;8259853;28;20479;-67
2021/03/18 19:53:34;;;;;;;67.68;28.05;;;;;;;;;;8259945;28;20371;-67
2021/03/18 19:57:39;;;;;;;50.72;18.90;;;;;;;;;;8258906;28;20463;-67
2021/03/18 20:01:44;;;;;;;53.20;21.23;;;;;;;;;;8257781;28;20063;-66
2021/03/18 20:05:49;;;;;;;60.55;21.10;;;;;;;;;;8259548;28;20075;-69
2021/03/18 20:09:53;;;;;;;50.45;18.33;;;;;;;;;;8258458;28;20049;-67
2021/03/18 20:13:57;;;;;;;50.80;19.67;;;;;;;;;;8259347;28;20051;-67
2021/03/18 20:18:04;;;;;;;58.45;19.15;;;;;;;;;;8258811;28;20049;-66
2021/03/18 20:22:09;;;;;;;49.45;21.90;;;;;;;;;;8259611;28;20372;-67
2021/03/18 20:26:13;;;;;;;51.55;20.70;;;;;;;;;;8259627;28;20455;-67
2021/03/18 20:30:25;;;;;;;67.97;22.92;;;;;;;;;;8258183;28;20375;-67
2021/03/18 20:34:28;;;;;;;45.58;18.17;;;;;;;;;;8257854;28;20347;-67
2021/03/18 20:38:33;;;;;;;52.15;17.80;;;;;;;;;;8257586;28;20102;-66
2021/03/18 20:42:39;;;;;;;58.38;21.30;;;;;;;;;;8257170;28;20383;-66
2021/03/18 20:46:43;;;;;;;55.03;20.15;;;;;;;;;;8255573;28;20052;-68
2021/03/18 20:50:48;;;;;;;73.35;24.23;;;;;;;;;;8259467;28;20079;-65
2021/03/18 20:54:55;;;;;;;67.40;24.13;;;;;;;;;;8257174;28;20463;-66
2021/03/18 20:58:58;;;;;;;79.53;27.80;;;;;;;;;;8258384;28;20049;-66
2021/03/18 21:03:05;;;;;;;80.35;28.92;;;;;;;;;;8258931;28;20447;-65
2021/03/18 21:07:09;;;;;;;92.65;31.58;;;;;;;;;;8258976;28;20352;-66
2021/03/18 21:11:14;;;;;;;107.35;33.45;;;;;;;;;;8258429;28;20360;-66
2021/03/18 21:15:19;;;;;;;102.65;33.45;;;;;;;;;;8259882;28;20057;-65
2021/03/18 21:19:23;;;;;;;99.38;32.85;;;;;;;;;;8258110;28;20463;-66
2021/03/18 21:23:30;;;;;;;112.47;35.70;;;;;;;;;;8257639;28;20379;-65
2021/03/18 21:27:38;;;;;;;93.57;32.72;;;;;;;;;;8256647;28;20501;-66
2021/03/18 21:31:42;;;;;;;93.13;29.23;;;;;;;;;;8257727;28;20057;-67
2021/03/18 21:35:47;;;;;;;83.72;30.33;;;;;;;;;;8257626;28;20349;-67
2021/03/18 21:39:52;;;;;;;76.78;25.92;;;;;;;;;;8261518;28;20391;-67
2021/03/18 21:43:56;;;;;;;72.07;26.38;;;;;;;;;;8264882;28;20403;-67
2021/03/18 21:48:00;;;;;;;71.13;26.08;;;;;;;;;;8262133;28;20079;-67
2021/03/18 21:52:05;;;;;;;87.50;30.55;;;;;;;;;;8264058;28;20493;-67
2021/03/18 21:56:09;;;;;;;79.07;29.20;;;;;;;;;;8262869;28;20475;-66
2021/03/18 22:00:19;;;;;;;73.10;25.60;;;;;;;;;;8261515;28;20472;-66
2021/03/18 22:04:24;;;;;;;95.78;30.45;;;;;;;;;;8263345;28;20399;-67
2021/03/18 22:08:28;;;;;;;84.85;30.55;;;;;;;;;;8265758;28;20471;-68
2021/03/18 22:12:33;;;;;;;87.90;30.00;;;;;;;;;;8262899;28;20052;-67
2021/03/18 22:16:38;;;;;;;93.65;29.95;;;;;;;;;;8261966;28;20052;-67
2021/03/18 22:20:46;;;;;;;107.22;33.53;;;;;;;;;;8245178;28;20471;-67
2021/03/18 22:24:49;;;;;;;95.32;32.33;;;;;;;;;;8262804;28;20482;-68
2021/03/18 22:28:54;;;;;;;92.20;32.38;;;;;;;;;;8264029;28;20482;-67
2021/03/18 22:32:58;;;;;;;80.90;29.42;;;;;;;;;;8261801;28;20490;-67
2021/03/18 22:37:03;;;;;;;70.40;25.15;;;;;;;;;;8262108;28;20337;-67
2021/03/18 22:41:08;;;;;;;82.32;26.05;;;;;;;;;;8261919;28;20452;-67
2021/03/18 22:45:13;;;;;;;67.05;23.50;;;;;;;;;;8262672;28;20448;-68
2021/03/18 22:49:19;;;;;;;76.07;25.15;;;;;;;;;;8261712;28;20472;-67
2021/03/18 22:53:24;;;;;;;59.92;23.02;;;;;;;;;;8261101;28;20460;-67
2021/03/18 22:57:28;;;;;;;73.60;23.92;;;;;;;;;;8261959;28;20478;-66
2021/03/18 23:01:33;;;;;;;74.60;24.80;;;;;;;;;;8259728;28;20360;-67
2021/03/18 23:05:37;;;;;;;77.75;27.10;;;;;;;;;;8261585;28;20368;-67
2021/03/18 23:09:42;;;;;;;86.68;27.00;;;;;;;;;;8261318;28;20518;-67
2021/03/18 23:13:47;;;;;;;81.40;26.88;;;;;;;;;;8275378;28;20102;-67
2021/03/18 23:17:58;;;;;;;73.40;26.42;;;;;;;;;;8262306;28;20386;-67
2021/03/18 23:22:17;;;;;;;67.88;25.70;;;;;;;;;;8260738;28;20467;-67
2021/03/18 23:26:22;;;;;;;75.57;26.70;;;;;;;;;;8261955;28;20364;-66
2021/03/18 23:30:26;;;;;;;81.03;27.70;;;;;;;;;;8261296;28;20078;-67
2021/03/18 23:34:30;;;;;;;82.57;28.70;;;;;;;;;;8261758;28;20444;-66
2021/03/18 23:38:35;;;;;;;80.00;28.48;;;;;;;;;;8260239;28;20394;-66
2021/03/18 23:42:39;;;;;;;86.45;26.48;;;;;;;;;;8258873;28;20468;-66
2021/03/18 23:46:46;;;;;;;83.75;26.75;;;;;;;;;;8259446;28;20468;-66
2021/03/18 23:50:51;;;;;;;78.97;26.33;;;;;;;;;;8259302;28;20357;-67
2021/03/18 23:54:54;;;;;;;83.45;26.88;;;;;;;;;;8259005;28;20399;-67
2021/03/18 23:58:59;;;;;;;87.05;28.73;;;;;;;;;;8258800;28;20502;-67
